Time;durP1;ratioP1;P1;durP2;ratioP2;P2;SDS_P1;SDS_P2;PMS_P1;PMS_P2;Temp;Humidity;BMP_temperature;BMP_pressure;BME280_temperature;BME280_humidity;BME280_pressure;Samples;Min_cycle;Max_cycle;Signal;HPM_P1;HPM_P2
2022/11/08 00:01:44;;;;;;;26.58;7.25;;;;;;;11.00;100.00;100869.59;5075321;28;20051;-47
2022/11/08 00:04:12;;;;;;;29.75;7.80;;;;;;;10.99;100.00;100875.59;5075252;28;20456;-45
2022/11/08 00:14:52;;;;;;;32.25;8.10;;;;;;;10.90;100.00;100875.31;5075842;28;20178;-46
2022/11/08 00:17:20;;;;;;;30.50;7.38;;;;;;;10.85;100.00;100872.63;5074530;28;20111;-45
2022/11/08 00:19:45;;;;;;;;;;;;;;;10.90;100.00;100875.31;5075980;28;20025;-45
2022/11/08 00:22:11;;;;;;;26.23;6.60;;;;;;;10.76;100.00;100872.38;5075223;28;19919;-46
2022/11/08 00:24:37;;;;;;;35.72;8.05;;;;;;;10.79;100.00;100873.31;5074370;28;20461;-47
2022/11/08 00:27:04;;;;;;;31.35;8.18;;;;;;;10.77;100.00;100874.97;5075010;28;20052;-46
2022/11/08 00:29:30;;;;;;;25.55;7.65;;;;;;;10.76;100.00;100872.38;5075211;28;20029;-46
2022/11/08 00:31:55;;;;;;;23.50;6.80;;;;;;;10.75;100.00;100868.91;5073924;28;20529;-44
2022/11/08 00:34:20;;;;;;;30.45;6.28;;;;;;;10.73;100.00;100868.00;5075260;28;20024;-48
2022/11/08 00:36:46;;;;;;;32.65;8.13;;;;;;;10.74;100.00;100863.69;5073803;28;20028;-45
2022/11/08 00:39:11;;;;;;;30.00;7.28;;;;;;;10.71;100.00;100859.34;5074683;28;20020;-45
2022/11/08 00:41:36;;;;;;;31.13;7.28;;;;;;;10.66;100.00;100855.75;5075155;28;20025;-45
2022/11/08 00:44:02;;;;;;;21.75;7.05;;;;;;;10.61;100.00;100858.16;5073815;28;20039;-46
2022/11/08 00:46:27;;;;;;;31.08;7.55;;;;;;;10.54;100.00;100851.09;5074560;28;20524;-42
2022/11/08 00:48:53;;;;;;;32.80;7.20;;;;;;;10.54;100.00;100854.53;5074529;28;20024;-45
2022/11/08 00:51:18;;;;;;;24.02;7.65;;;;;;;10.52;100.00;100853.66;5074086;28;20028;-45
2022/11/08 00:53:43;;;;;;;30.77;8.02;;;;;;;10.53;100.00;100857.09;5074877;28;20029;-46
2022/11/08 00:56:12;;;;;;;28.05;7.43;;;;;;;10.52;100.00;100852.75;5074686;28;20029;-47
2022/11/08 00:58:38;;;;;;;28.60;6.78;;;;;;;10.48;100.00;100851.81;5073944;28;20032;-45
2022/11/08 01:01:13;;;;;;;27.20;7.28;;;;;;;10.46;100.00;100847.44;5074230;28;20027;-43
2022/11/08 01:03:38;;;;;;;27.02;6.57;;;;;;;10.43;100.00;100840.50;5074374;28;20380;-45
2022/11/08 01:06:05;;;;;;;26.33;6.95;;;;;;;10.41;100.00;100843.84;5073520;28;20457;-45
2022/11/08 01:08:31;;;;;;;27.65;7.35;;;;;;;10.37;100.00;100838.59;5074622;28;20048;-46
2022/11/08 01:11:00;;;;;;;28.50;6.85;;;;;;;10.36;100.00;100847.13;5074221;28;20094;-46
2022/11/08 01:13:25;;;;;;;26.73;7.32;;;;;;;10.32;100.00;100846.97;5073508;28;20096;-46
2022/11/08 01:15:50;;;;;;;33.15;7.50;;;;;;;10.29;100.00;100849.44;5074510;28;20103;-44
2022/11/08 01:18:16;;;;;;;29.10;7.47;;;;;;;10.24;100.00;100839.03;5074122;28;20448;-44
2022/11/08 01:20:43;;;;;;;27.75;7.20;;;;;;;10.23;100.00;100849.28;5073638;28;20025;-43
2022/11/08 01:23:10;;;;;;;24.13;7.20;;;;;;;10.15;100.00;100836.16;5073935;28;20040;-45
2022/11/08 01:25:44;;;;;;;29.27;7.70;;;;;;;10.12;100.00;100844.66;5074065;28;20107;-43
2022/11/08 01:28:11;;;;;;;28.15;7.57;;;;;;;10.10;100.00;100836.00;5073433;28;20078;-45
2022/11/08 01:30:38;;;;;;;30.33;8.45;;;;;;;10.06;100.00;100839.31;5074204;28;20025;-45
2022/11/08 01:33:03;;;;;;;26.83;8.55;;;;;;;10.09;100.00;100835.97;5073106;28;20036;-46
2022/11/08 01:35:31;;;;;;;35.95;8.32;;;;;;;10.01;100.00;100834.00;5074025;28;20020;-44
2022/11/08 01:37:56;;;;;;;38.00;8.75;;;;;;;9.97;100.00;100828.72;5073620;28;20025;-46
2022/11/08 01:40:21;;;;;;;26.23;9.10;;;;;;;9.99;100.00;100814.19;5073002;28;20150;-42
2022/11/08 01:42:47;;;;;;;25.83;8.32;;;;;;;10.00;100.00;100810.78;5073668;28;20031;-48
2022/11/08 01:45:12;;;;;;;28.17;8.48;;;;;;;9.96;100.00;100814.97;5073559;28;20042;-46
2022/11/08 01:47:37;;;;;;;34.00;9.18;;;;;;;9.96;100.00;100806.38;5072787;28;20040;-45
2022/11/08 01:50:15;;;;;;;26.50;8.23;;;;;;;9.98;100.00;100805.59;5072465;28;20422;-43
2022/11/08 01:52:44;;;;;;;;;;;;;;;10.00;100.00;100800.50;5074038;28;20033;-46
2022/11/08 01:55:18;;;;;;;34.95;9.10;;;;;;;9.92;100.00;100800.25;5072315;28;19952;-46
2022/11/08 01:57:53;;;;;;;35.60;9.15;;;;;;;9.94;100.00;100790.00;5073442;28;20486;-44
2022/11/08 02:00:19;;;;;;;33.72;7.95;;;;;;;9.93;100.00;100781.41;5073467;28;20415;-47
2022/11/08 02:02:50;;;;;;;32.65;7.75;;;;;;;10.01;100.00;100786.81;5072675;28;20025;-47
2022/11/08 02:05:25;;;;;;;22.45;7.80;;;;;;;10.02;100.00;100781.69;5073093;28;20032;-45
2022/11/08 02:07:56;;;;;;;29.80;7.85;;;;;;;10.05;100.00;100774.06;5073279;28;20029;-46
2022/11/08 02:10:25;;;;;;;27.85;7.60;;;;;;;10.07;100.00;100773.22;5072590;28;20056;-45
2022/11/08 02:12:52;;;;;;;30.67;7.95;;;;;;;10.03;100.00;100770.56;5073293;28;20028;-45
2022/11/08 02:15:22;;;;;;;21.77;6.93;;;;;;;10.08;100.00;100762.09;5072450;28;20103;-44
2022/11/08 02:17:47;;;;;;;24.30;6.63;;;;;;;10.02;100.00;100758.53;5073189;28;20063;-45
2022/11/08 02:20:12;;;;;;;25.02;7.15;;;;;;;10.10;100.00;100753.59;5072969;28;20036;-43
2022/11/08 02:22:46;;;;;;;34.65;7.65;;;;;;;10.02;100.00;100755.09;5072473;28;20052;-47
2022/11/08 02:25:12;;;;;;;29.20;6.75;;;;;;;10.11;100.00;100757.94;5072839;28;20028;-47
2022/11/08 02:27:37;;;;;;;25.00;7.38;;;;;;;10.10;100.00;100756.19;5073123;28;20031;-46
2022/11/08 02:30:03;;;;;;;24.73;6.35;;;;;;;10.16;100.00;100747.75;5072078;28;20021;-43
2022/11/08 02:32:36;;;;;;;24.15;6.50;;;;;;;10.17;100.00;100742.66;5073153;28;20472;-46
2022/11/08 02:35:05;;;;;;;28.80;7.32;;;;;;;10.14;100.00;100744.28;5072604;28;20460;-46
2022/11/08 02:37:30;;;;;;;20.90;6.35;;;;;;;10.15;100.00;100733.16;5072173;28;20036;-47
2022/11/08 02:39:55;;;;;;;23.92;6.45;;;;;;;10.14;100.00;100737.41;5072659;28;20025;-42
2022/11/08 02:42:21;;;;;;;22.95;6.05;;;;;;;10.14;100.00;100727.09;5073050;28;20052;-45
2022/11/08 02:44:46;;;;;;;25.65;6.30;;;;;;;10.17;100.00;100727.22;5071962;28;20033;-46
2022/11/08 02:47:12;;;;;;;25.92;6.32;;;;;;;10.12;100.00;100728.78;5072397;28;20389;-46
2022/11/08 02:49:37;;;;;;;20.27;6.32;;;;;;;10.13;100.00;100724.50;5073010;28;20020;-43
2022/11/08 02:52:03;;;;;;;22.80;6.18;;;;;;;10.08;100.00;100726.91;5071871;28;20472;-43
2022/11/08 02:54:28;;;;;;;21.00;6.35;;;;;;;10.04;100.00;100714.78;5072819;28;20025;-47
2022/11/08 02:56:53;;;;;;;20.92;6.30;;;;;;;9.91;100.00;100713.56;5072476;28;20032;-45
2022/11/08 02:59:19;;;;;;;24.27;7.55;;;;;;;9.89;100.00;100716.09;5071909;28;20394;-46
2022/11/08 03:01:44;;;;;;;25.42;6.85;;;;;;;9.87;100.00;100709.16;5075975;28;20395;-45
2022/11/08 03:04:09;;;;;;;17.55;6.47;;;;;;;9.83;100.00;100697.88;5076311;28;20031;-45
2022/11/08 03:06:35;;;;;;;31.35;8.07;;;;;;;9.81;100.00;100696.97;5075941;28;20062;-44
2022/11/08 03:09:00;;;;;;;19.80;6.50;;;;;;;9.76;100.00;100698.53;5076514;28;20028;-45
2022/11/08 03:11:25;;;;;;;24.25;7.07;;;;;;;9.71;100.00;100687.22;5076035;28;20150;-42
2022/11/08 03:13:51;;;;;;;26.45;8.23;;;;;;;9.66;100.00;100681.06;5076644;28;20033;-45
2022/11/08 03:16:16;;;;;;;25.35;8.18;;;;;;;9.59;100.00;100677.41;5076293;28;20403;-47
2022/11/08 03:18:42;;;;;;;24.55;8.55;;;;;;;9.59;100.00;100679.13;5075761;28;20032;-46
2022/11/08 03:21:08;;;;;;;32.28;8.45;;;;;;;9.55;100.00;100673.00;5076384;28;20043;-47
2022/11/08 03:23:33;;;;;;;27.73;8.43;;;;;;;9.53;100.00;100667.81;5076501;28;20384;-47
2022/11/08 03:26:03;;;;;;;28.90;9.32;;;;;;;9.47;100.00;100675.34;5075401;28;20024;-47
2022/11/08 03:28:28;;;;;;;28.63;8.88;;;;;;;9.46;100.00;100662.44;5076456;28;20058;-47
2022/11/08 03:30:54;;;;;;;33.17;9.25;;;;;;;9.42;100.00;100656.31;5075946;28;20020;-47
2022/11/08 03:33:19;;;;;;;32.30;8.70;;;;;;;9.38;100.00;100655.34;5075476;28;20036;-46
2022/11/08 03:35:47;;;;;;;31.10;8.80;;;;;;;9.36;100.00;100650.97;5076572;28;20047;-48
2022/11/08 03:38:13;;;;;;;27.42;7.22;;;;;;;9.32;100.00;100644.88;5076092;28;20028;-45
2022/11/08 03:40:38;;;;;;;29.55;8.75;;;;;;;9.41;100.00;100633.97;5075383;28;20031;-45
2022/11/08 03:43:03;;;;;;;25.35;7.32;;;;;;;9.39;100.00;100630.50;5075864;28;20036;-46
2022/11/08 03:45:29;;;;;;;26.95;8.48;;;;;;;9.43;100.00;100632.34;5075855;28;20399;-47
2022/11/08 03:47:54;;;;;;;23.60;7.65;;;;;;;9.42;100.00;100625.44;5074831;28;20488;-45
2022/11/08 03:50:19;;;;;;;29.52;8.18;;;;;;;9.38;100.00;100614.19;5076107;28;20025;-45
2022/11/08 03:52:48;;;;;;;23.50;7.18;;;;;;;9.39;100.00;100610.78;5075819;28;20031;-45
2022/11/08 03:55:14;;;;;;;27.80;7.15;;;;;;;9.41;100.00;100608.25;5074956;28;20025;-46
2022/11/08 03:57:40;;;;;;;26.73;6.43;;;;;;;9.37;100.00;100598.69;5075807;28;20032;-47
2022/11/08 04:00:07;;;;;;;19.95;6.45;;;;;;;9.39;100.00;100600.50;5075418;28;20062;-47
2022/11/08 04:02:33;;;;;;;21.70;6.38;;;;;;;9.44;100.00;100589.47;5074888;28;20082;-47
2022/11/08 04:04:58;;;;;;;24.25;7.00;;;;;;;9.47;100.00;100584.44;5075446;28;20058;-43
2022/11/08 04:07:23;;;;;;;22.15;6.93;;;;;;;9.47;100.00;100592.16;5075571;28;20025;-47
2022/11/08 04:09:48;;;;;;;28.88;7.28;;;;;;;9.48;100.00;100583.63;5074933;28;20040;-44
2022/11/08 04:15:16;;;;;;;23.05;6.47;;;;;;;9.46;100.00;100573.25;5074921;28;20113;-46
2022/11/08 04:23:12;;;;;;;22.92;6.43;;;;;;;9.43;100.00;100560.31;5074609;28;20055;-45
2022/11/08 04:25:37;;;;;;;22.08;7.03;;;;;;;9.43;100.00;100560.31;5075211;28;20037;-45
2022/11/08 04:28:03;;;;;;;26.35;7.32;;;;;;;9.46;100.00;100560.38;5075135;28;20044;-46
2022/11/08 04:30:28;;;;;;;19.65;6.15;;;;;;;9.42;100.00;100553.41;5074415;28;20020;-47
2022/11/08 04:32:53;;;;;;;19.15;6.43;;;;;;;9.37;100.00;100554.97;5074931;28;20477;-45
2022/11/08 04:35:19;;;;;;;24.50;6.50;;;;;;;9.42;100.00;100552.56;5075089;28;20032;-44
2022/11/08 04:37:44;;;;;;;34.50;6.70;;;;;;;9.44;100.00;100545.75;5074204;28;20028;-46
2022/11/08 04:40:10;;;;;;;22.05;5.95;;;;;;;9.43;100.00;100544.88;5074947;28;20032;-47
2022/11/08 04:42:35;;;;;;;26.25;6.72;;;;;;;9.42;100.00;100545.69;5074996;28;20476;-44
2022/11/08 04:45:01;;;;;;;22.55;6.05;;;;;;;9.41;100.00;100536.22;5073951;28;20033;-46
2022/11/08 04:47:27;;;;;;;21.08;5.38;;;;;;;9.41;100.00;100543.09;5074783;28;20072;-47
2022/11/08 04:49:53;;;;;;;21.65;6.20;;;;;;;9.41;100.00;100543.09;5073924;28;20024;-42
2022/11/08 04:52:19;;;;;;;24.63;6.07;;;;;;;9.44;100.00;100538.03;5074714;28;20540;-45
2022/11/08 04:54:45;;;;;;;17.25;5.53;;;;;;;9.48;100.00;100533.03;5074930;28;20403;-45
2022/11/08 04:57:11;;;;;;;14.88;5.20;;;;;;;9.48;100.00;100525.31;5073612;28;20464;-44
2022/11/08 04:59:36;;;;;;;16.08;4.90;;;;;;;9.43;100.00;100519.16;5074756;28;20025;-46
2022/11/08 05:02:01;;;;;;;20.77;5.50;;;;;;;9.42;100.00;100512.25;5074571;28;20021;-45
2022/11/08 05:04:26;;;;;;;23.58;5.82;;;;;;;9.38;100.00;100520.72;5073799;28;20040;-46
2022/11/08 05:06:52;;;;;;;21.02;6.40;;;;;;;9.30;100.00;100512.78;5074454;28;20069;-46
2022/11/08 05:09:17;;;;;;;18.70;5.60;;;;;;;9.31;100.00;100509.38;5074360;28;20025;-46
2022/11/08 05:11:42;;;;;;;25.20;6.28;;;;;;;9.30;100.00;100511.94;5073708;28;20475;-46
2022/11/08 05:14:08;;;;;;;18.95;5.60;;;;;;;9.25;100.00;100498.06;5074287;28;20067;-48
2022/11/08 05:16:33;;;;;;;21.95;5.30;;;;;;;9.22;100.00;100499.69;5074601;28;20376;-45
2022/11/08 05:18:59;;;;;;;15.95;4.93;;;;;;;9.21;100.00;100497.94;5073187;28;20020;-43
2022/11/08 05:24:11;;;;;;;23.02;5.72;;;;;;;9.18;100.00;100508.16;5073928;28;20106;-47
2022/11/08 05:26:41;;;;;;;19.02;5.97;;;;;;;9.16;100.00;100504.66;5073495;28;20025;-46
2022/11/08 05:29:06;;;;;;;21.10;5.80;;;;;;;9.13;100.00;100499.44;5073820;28;20094;-47
2022/11/08 05:31:32;;;;;;;18.25;5.18;;;;;;;9.18;100.00;100492.72;5074030;28;20468;-47
2022/11/08 05:33:58;;;;;;;15.52;5.32;;;;;;;9.25;100.00;100490.34;5072845;28;20029;-46
2022/11/08 05:36:24;;;;;;;14.17;4.87;;;;;;;9.30;100.00;100489.63;5074086;28;20020;-47
2022/11/08 05:38:49;;;;;;;19.48;5.32;;;;;;;9.27;100.00;100476.69;5074083;28;20024;-43
2022/11/08 05:41:17;;;;;;;14.13;5.35;;;;;;;9.27;100.00;100488.66;5072716;28;20051;-44
2022/11/08 05:43:48;;;;;;;18.15;5.13;;;;;;;9.30;100.00;100478.50;5073782;28;20029;-47
2022/11/08 05:46:14;;;;;;;17.55;4.80;;;;;;;9.26;100.00;100484.34;5072552;28;20020;-46
2022/11/08 05:48:41;;;;;;;15.07;4.68;;;;;;;9.29;100.00;100479.31;5073669;28;20067;-45
2022/11/08 05:51:06;;;;;;;16.73;5.30;;;;;;;9.27;100.00;100480.94;5073568;28;20025;-47
2022/11/08 05:53:31;;;;;;;16.52;5.07;;;;;;;9.28;100.00;100485.28;5072887;28;20150;-47
2022/11/08 05:55:58;;;;;;;17.25;6.07;;;;;;;9.29;100.00;100479.31;5073176;28;20431;-47
2022/11/08 05:58:25;;;;;;;16.83;5.45;;;;;;;9.32;100.00;100484.53;5073522;28;20032;-45
2022/11/08 06:00:50;;;;;;;14.93;5.05;;;;;;;9.29;100.00;100476.75;5072600;28;20037;-47
2022/11/08 06:03:15;;;;;;;16.60;5.13;;;;;;;9.31;99.98;100477.63;5073008;28;20384;-48
2022/11/08 06:05:40;;;;;;;13.80;5.50;;;;;;;9.25;99.95;100474.91;5073505;28;20487;-45
2022/11/08 06:08:06;;;;;;;15.77;5.65;;;;;;;9.26;99.85;100471.50;5072208;28;20028;-46
2022/11/08 06:10:31;;;;;;;19.10;5.43;;;;;;;9.23;100.00;100474.84;5073447;28;20044;-48
2022/11/08 06:13:00;;;;;;;18.30;5.47;;;;;;;9.23;99.67;100465.44;5072885;28;20039;-47
2022/11/08 06:15:25;;;;;;;17.55;5.53;;;;;;;9.17;99.96;100469.56;5072422;28;20035;-47
2022/11/08 06:17:50;;;;;;;17.67;5.43;;;;;;;9.18;99.84;100468.69;5073088;28;20021;-45
2022/11/08 06:20:16;;;;;;;15.75;5.38;;;;;;;9.22;99.43;100467.97;5073196;28;20112;-46
2022/11/08 06:22:42;;;;;;;18.50;5.55;;;;;;;9.21;99.38;100469.66;5072537;28;20020;-45
2022/11/08 06:25:08;;;;;;;16.77;6.47;;;;;;;9.25;99.08;100473.19;5073202;28;20028;-46
2022/11/08 06:27:33;;;;;;;16.23;6.10;;;;;;;9.29;98.75;100476.75;5073059;28;20380;-46
2022/11/08 06:29:58;;;;;;;21.15;5.93;;;;;;;9.22;99.15;100478.28;5071896;28;20044;-47
2022/11/08 06:32:24;;;;;;;14.65;6.13;;;;;;;9.25;98.75;100477.50;5072915;28;20032;-45
2022/11/08 06:34:49;;;;;;;16.67;5.93;;;;;;;9.23;98.64;100469.69;5072611;28;20029;-43
2022/11/08 06:37:15;;;;;;;16.95;6.00;;;;;;;9.25;98.43;100468.06;5071854;28;20036;-48
2022/11/08 06:39:41;;;;;;;18.67;5.40;;;;;;;9.25;98.38;100472.34;5072802;28;20494;-46
2022/11/08 06:42:07;;;;;;;24.63;6.38;;;;;;;9.21;98.30;100481.66;5072938;28;20056;-44
2022/11/08 06:44:32;;;;;;;13.95;5.85;;;;;;;9.22;98.11;100468.84;5071898;28;20033;-45
2022/11/08 06:46:58;;;;;;;17.02;5.93;;;;;;;9.23;98.23;100478.31;5072313;28;20048;-44
2022/11/08 06:49:24;;;;;;;16.45;6.00;;;;;;;9.16;98.68;100465.22;5072981;28;20095;-44
2022/11/08 06:51:50;;;;;;;20.42;6.22;;;;;;;9.21;97.87;100469.66;5072682;28;20079;-43
2022/11/08 06:54:16;;;;;;;26.77;6.95;;;;;;;9.16;98.36;100471.22;5072441;28;20028;-47
2022/11/08 06:56:41;;;;;;;16.23;5.95;;;;;;;9.17;97.98;100460.13;5072039;28;20101;-47
2022/11/08 06:59:07;;;;;;;20.83;6.43;;;;;;;9.17;98.17;100475.56;5072447;28;20028;-47
2022/11/08 07:01:33;;;;;;;15.93;6.18;;;;;;;9.15;98.33;100466.91;5072603;28;20056;-45
2022/11/08 07:03:58;;;;;;;17.40;6.68;;;;;;;9.16;97.98;100470.38;5071365;28;20059;-46
2022/11/08 07:06:24;;;;;;;24.33;6.25;;;;;;;9.17;98.26;100464.41;5072699;28;20029;-46
2022/11/08 07:08:49;;;;;;;16.20;6.40;;;;;;;9.15;97.94;100477.19;5072696;28;20033;-46
2022/11/08 07:11:15;;;;;;;20.88;6.30;;;;;;;9.20;97.51;100485.91;5071508;28;20384;-46
2022/11/08 07:13:40;;;;;;;13.85;6.43;;;;;;;9.19;97.17;100483.31;5072569;28;20024;-46
2022/11/08 07:16:06;;;;;;;23.15;7.80;;;;;;;9.21;97.31;100495.38;5072048;28;20128;-45
2022/11/08 07:18:31;;;;;;;16.05;6.35;;;;;;;9.25;96.87;100490.34;5071842;28;20468;-46
2022/11/08 07:21:01;;;;;;;22.90;6.72;;;;;;;9.29;96.58;100489.59;5072284;28;20077;-44
2022/11/08 07:23:27;;;;;;;16.40;6.97;;;;;;;9.36;95.90;100486.34;5072546;28;20036;-47
2022/11/08 07:25:52;;;;;;;22.15;6.43;;;;;;;9.38;95.88;100484.72;5071383;28;20021;-42
2022/11/08 07:28:18;;;;;;;17.08;6.72;;;;;;;9.36;95.99;100473.50;5072424;28;20029;-46
2022/11/08 07:30:45;;;;;;;20.42;6.88;;;;;;;9.43;95.15;100470.28;5072352;28;20029;-44
2022/11/08 07:33:11;;;;;;;17.95;7.00;;;;;;;9.41;95.58;100468.50;5071398;28;20047;-46
2022/11/08 07:35:36;;;;;;;20.63;7.00;;;;;;;9.44;95.02;100469.47;5072417;28;20067;-45
2022/11/08 07:38:02;;;;;;;19.98;6.70;;;;;;;9.47;95.68;100468.69;5071995;28;20048;-47
2022/11/08 07:40:27;;;;;;;23.17;6.93;;;;;;;9.50;95.03;100468.75;5071482;28;20031;-46
2022/11/08 07:42:56;;;;;;;18.48;7.15;;;;;;;9.54;94.13;100476.59;5072077;28;20036;-43
2022/11/08 07:45:22;;;;;;;22.25;7.15;;;;;;;9.52;94.89;100465.38;5072061;28;20028;-46
2022/11/08 07:47:47;;;;;;;28.15;8.05;;;;;;;9.55;94.47;100462.91;5074317;28;20488;-47
2022/11/08 07:50:12;;;;;;;27.85;7.95;;;;;;;9.59;94.48;100458.69;5075773;28;20544;-45
2022/11/08 07:52:38;;;;;;;23.15;7.82;;;;;;;9.63;93.92;100464.81;5075812;28;20024;-45
2022/11/08 07:55:03;;;;;;;24.48;7.68;;;;;;;9.68;93.09;100453.84;5074790;28;20549;-46
2022/11/08 07:57:28;;;;;;;26.70;7.00;;;;;;;9.72;93.77;100457.34;5075696;28;20029;-47
2022/11/08 07:59:54;;;;;;;23.10;7.20;;;;;;;9.78;92.32;100465.22;5074804;28;20439;-47
2022/11/08 08:02:19;;;;;;;30.58;7.20;;;;;;;9.84;92.43;100461.97;5075957;28;20039;-47
2022/11/08 08:04:44;;;;;;;27.63;7.45;;;;;;;9.88;92.08;100466.34;5075633;28;20043;-47
2022/11/08 08:07:11;;;;;;;23.60;7.03;;;;;;;9.94;91.46;100468.19;5074485;28;20111;-46
2022/11/08 08:09:36;;;;;;;23.30;6.88;;;;;;;10.00;91.08;100460.66;5075602;28;20048;-45
2022/11/08 08:12:02;;;;;;;18.70;6.20;;;;;;;10.06;90.38;100465.97;5075215;28;20027;-48
2022/11/08 08:14:27;;;;;;;22.17;6.60;;;;;;;10.16;89.53;100465.34;5074572;28;20032;-44
2022/11/08 08:16:52;;;;;;;22.77;6.10;;;;;;;10.25;88.77;100461.25;5075276;28;20020;-46
2022/11/08 08:19:18;;;;;;;21.50;6.20;;;;;;;10.32;88.01;100458.00;5075579;28;20031;-48
2022/11/08 08:21:43;;;;;;;18.98;5.93;;;;;;;10.39;88.49;100457.34;5074769;28;20373;-47
2022/11/08 08:24:09;;;;;;;14.07;5.15;;;;;;;10.49;86.89;100454.16;5074971;28;20162;-44
2022/11/08 08:26:34;;;;;;;14.43;5.40;;;;;;;10.60;85.88;100463.84;5075218;28;20452;-47
2022/11/08 08:29:00;;;;;;;16.67;4.90;;;;;;;10.67;86.05;100468.31;5074172;28;20029;-45
2022/11/08 08:31:25;;;;;;;18.50;5.20;;;;;;;10.79;85.04;100472.88;5075439;28;20417;-46
2022/11/08 08:33:50;;;;;;;14.05;4.88;;;;;;;10.87;83.84;100469.63;5075385;28;20070;-47
2022/11/08 08:36:15;;;;;;;13.70;4.63;;;;;;;11.00;82.80;100475.03;5073934;28;20027;-46
2022/11/08 08:38:41;;;;;;;17.35;4.55;;;;;;;11.10;82.75;100486.44;5075182;28;20023;-45
2022/11/08 08:41:06;;;;;;;17.95;4.82;;;;;;;11.20;81.81;100493.53;5074774;28;20017;-45
2022/11/08 08:43:31;;;;;;;13.32;4.40;;;;;;;11.33;80.46;100490.38;5074122;28;20021;-46
2022/11/08 08:46:01;;;;;;;17.08;4.70;;;;;;;11.45;80.01;100482.03;5074641;28;20475;-46
2022/11/08 08:48:27;;;;;;;14.25;4.38;;;;;;;11.52;79.71;100472.69;5075081;28;20097;-46
2022/11/08 08:50:52;;;;;;;11.77;4.28;;;;;;;11.61;78.96;100475.44;5074002;28;20369;-42
2022/11/08 08:53:17;;;;;;;12.38;4.28;;;;;;;11.69;78.57;100478.16;5074861;28;20021;-47
2022/11/08 08:55:43;;;;;;;9.57;3.88;;;;;;;11.74;78.28;100468.81;5074647;28;20122;-48
2022/11/08 08:58:09;;;;;;;12.65;4.32;;;;;;;11.81;77.78;100473.25;5072797;28;20457;-47
2022/11/08 09:00:35;;;;;;;12.43;4.63;;;;;;;11.88;77.85;100473.34;5074821;28;20081;-46
2022/11/08 09:03:03;;;;;;;10.95;4.13;;;;;;;11.92;76.94;100462.25;5074498;28;20388;-46
2022/11/08 09:05:29;;;;;;;19.17;4.03;;;;;;;11.94;76.77;100460.53;5074345;28;20059;-45
2022/11/08 09:07:55;;;;;;;13.48;4.75;;;;;;;11.93;77.38;100461.38;5074414;28;20035;-48
2022/11/08 09:10:20;;;;;;;13.80;4.55;;;;;;;11.98;77.16;100449.44;5073537;28;20103;-47
2022/11/08 09:12:45;;;;;;;15.00;4.43;;;;;;;12.01;77.99;100442.63;5074295;28;20503;-46
2022/11/08 09:15:11;;;;;;;11.07;4.38;;;;;;;12.12;76.73;100449.69;5073844;28;20033;-47
2022/11/08 09:17:36;;;;;;;11.85;4.28;;;;;;;12.18;75.64;100453.25;5073579;28;20468;-48
2022/11/08 09:20:02;;;;;;;12.50;4.45;;;;;;;12.28;75.73;100453.41;5074105;28;20115;-47
2022/11/08 09:22:27;;;;;;;10.25;4.00;;;;;;;12.31;75.58;100469.81;5074109;28;20021;-46
2022/11/08 09:24:53;;;;;;;13.52;4.35;;;;;;;12.32;75.88;100462.97;5073115;28;20031;-44
2022/11/08 09:27:18;;;;;;;9.82;4.10;;;;;;;12.35;74.64;100452.66;5073993;28;20093;-47
2022/11/08 09:29:43;;;;;;;16.25;4.88;;;;;;;12.37;74.98;100453.56;5073981;28;20029;-44
2022/11/08 09:32:08;;;;;;;17.10;5.07;;;;;;;12.39;75.32;100440.66;5073086;28;20460;-46
2022/11/08 09:34:34;;;;;;;14.60;5.28;;;;;;;12.41;75.13;100447.59;5073985;28;20032;-47
2022/11/08 09:36:59;;;;;;;13.07;4.72;;;;;;;12.46;74.79;100448.53;5073696;28;20465;-47
2022/11/08 09:39:24;;;;;;;13.45;4.65;;;;;;;12.44;74.50;100455.38;5073030;28;20025;-48
2022/11/08 09:42:16;;;;;;;16.73;4.85;;;;;;;12.48;75.30;100464.06;5073752;28;20472;-46
2022/11/08 09:44:44;;;;;;;13.70;4.82;;;;;;;12.57;74.61;100455.59;5073597;28;20502;-47
2022/11/08 09:47:18;;;;;;;17.42;4.97;;;;;;;12.63;75.23;100450.50;5072491;28;20049;-47
2022/11/08 09:50:10;;;;;;;16.60;4.60;;;;;;;12.79;74.45;100455.03;5073715;28;20388;-45
2022/11/08 09:52:38;;;;;;;10.27;4.32;;;;;;;12.84;72.88;100445.63;5072902;28;20047;-47
2022/11/08 09:55:19;;;;;;;12.82;4.05;;;;;;;12.87;73.11;100462.03;5073229;28;20415;-47
2022/11/08 09:58:04;;;;;;;10.82;4.18;;;;;;;12.96;73.63;100475.09;5073621;28;20024;-46
2022/11/08 10:00:30;;;;;;;16.83;4.93;;;;;;;12.95;72.49;100466.47;5072621;28;20033;-46
2022/11/08 10:02:55;;;;;;;12.88;4.13;;;;;;;13.02;72.49;100465.69;5073298;28;20025;-45
2022/11/08 10:05:21;;;;;;;12.93;4.47;;;;;;;13.08;72.80;100459.75;5073425;28;20035;-45
2022/11/08 10:08:08;;;;;;;17.67;4.20;;;;;;;13.17;73.15;100470.22;5072543;28;20032;-47
2022/11/08 10:10:56;;;;;;;;;;;;;;;13.30;72.32;100462.63;5072964;28;20024;-47
2022/11/08 10:13:44;;;;;;;10.70;5.35;;;;;;;13.53;71.39;100467.22;5073346;28;20057;-44
2022/11/08 10:16:21;;;;;;;11.38;4.75;;;;;;;13.55;70.25;100470.69;5073099;28;20024;-44
2022/11/08 10:19:06;;;;;;;;;;;;;;;13.68;70.86;100463.94;5073595;28;20052;-46
2022/11/08 10:21:50;;;;;;;10.43;3.72;;;;;;;13.78;69.17;100470.94;5072305;28;19916;-47
2022/11/08 10:24:24;;;;;;;16.50;4.65;;;;;;;13.85;68.99;100479.66;5072794;28;20078;-47
2022/11/08 10:26:52;;;;;;;10.43;3.80;;;;;;;13.79;68.21;100478.72;5073183;28;20472;-47
2022/11/08 10:29:23;;;;;;;12.15;4.25;;;;;;;13.81;68.80;100473.56;5072235;28;20460;-48
2022/11/08 10:32:00;;;;;;;12.90;4.57;;;;;;;13.77;69.62;100477.84;5072912;28;20032;-47
2022/11/08 10:34:33;;;;;;;11.23;4.37;;;;;;;13.76;69.11;100476.13;5073115;28;20060;-48
2022/11/08 10:37:03;;;;;;;15.18;4.28;;;;;;;13.77;69.25;100484.75;5072788;28;20275;-48
2022/11/08 10:39:33;;;;;;;12.20;4.15;;;;;;;13.76;69.10;100483.88;5073030;28;20021;-47
2022/11/08 10:42:15;;;;;;;14.13;4.85;;;;;;;13.71;70.27;100477.78;5071925;28;20036;-47
2022/11/08 10:44:41;;;;;;;12.95;4.22;;;;;;;13.65;68.30;100483.75;5072979;28;20119;-46
2022/11/08 10:47:18;;;;;;;13.60;4.13;;;;;;;13.64;69.14;100481.16;5072450;28;20053;-47
2022/11/08 10:49:43;;;;;;;12.45;4.00;;;;;;;13.64;68.29;100476.84;5072132;28;20034;-47
2022/11/08 10:52:38;;;;;;;12.95;4.22;;;;;;;13.67;68.37;100478.59;5072516;28;20024;-46
2022/11/08 10:55:21;;;;;;;10.35;4.13;;;;;;;13.70;68.27;100481.22;5072597;28;20033;-46
2022/11/08 10:57:46;;;;;;;14.13;4.45;;;;;;;13.77;67.86;100477.84;5072093;28;20035;-47
2022/11/08 11:00:20;;;;;;;13.20;4.90;;;;;;;13.85;68.62;100474.47;5072449;28;20144;-46
2022/11/08 11:02:56;;;;;;;10.43;3.95;;;;;;;13.99;67.69;100475.47;5072047;28;20036;-45
2022/11/08 11:05:40;;;;;;;13.82;4.10;;;;;;;14.00;68.08;100461.66;5072462;28;20460;-47
2022/11/08 11:08:08;;;;;;;12.10;4.47;;;;;;;13.96;67.63;100476.31;5072376;28;20082;-46
2022/11/08 11:10:35;;;;;;;18.13;4.15;;;;;;;13.97;67.53;100451.28;5071745;28;20376;-48
2022/11/08 11:13:22;;;;;;;15.23;4.37;;;;;;;13.95;67.51;100451.25;5072147;28;20043;-46
2022/11/08 11:16:02;;;;;;;14.30;4.88;;;;;;;13.86;67.44;100445.97;5072487;28;20383;-49
2022/11/08 11:18:33;;;;;;;12.23;4.82;;;;;;;13.83;67.99;100440.78;5071869;28;20040;-44
2022/11/08 11:21:04;;;;;;;12.13;4.30;;;;;;;13.77;68.79;100436.38;5072430;28;20034;-47
2022/11/08 11:23:41;;;;;;;13.30;4.45;;;;;;;13.80;69.08;100446.81;5076463;28;20024;-48
2022/11/08 11:26:16;;;;;;;13.57;4.90;;;;;;;13.80;69.23;100451.97;5075384;28;20170;-44
2022/11/08 11:29:16;;;;;;;11.77;4.22;;;;;;;13.91;69.32;100433.94;5076571;28;20033;-46
2022/11/08 11:31:44;;;;;;;12.35;4.25;;;;;;;13.91;68.43;100417.53;5056921;28;20032;-47
2022/11/08 11:34:15;;;;;;;12.98;4.07;;;;;;;13.96;68.17;100411.53;5076018;28;20025;-45
2022/11/08 11:36:43;;;;;;;14.77;4.25;;;;;;;13.95;68.25;100420.16;5076126;28;20480;-46
2022/11/08 11:39:38;;;;;;;12.07;4.43;;;;;;;14.09;67.87;100422.00;5075228;28;20040;-45